Time;durP1;ratioP1;P1;durP2;ratioP2;P2;SDS_P1;SDS_P2;PMS_P1;PMS_P2;Temp;Humidity;BMP_temperature;BMP_pressure;BME280_temperature;BME280_humidity;BME280_pressure;Samples;Min_cycle;Max_cycle;Signal;HPM_P1;HPM_P2
2022/09/29 00:02:18;;;;;;;3.88;0.80;;;;;;;;;;5061032;28;20104;-77
2022/09/29 00:04:43;;;;;;;5.82;0.98;;;;;;;;;;5061261;28;20070;-77
2022/09/29 00:07:08;;;;;;;4.10;0.75;;;;;;;;;;5061179;28;20202;-77
2022/09/29 00:09:34;;;;;;;5.30;0.90;;;;;;;;;;5061268;28;20055;-77
2022/09/29 00:12:00;;;;;;;3.78;0.80;;;;;;;;;;5061037;28;20025;-76
2022/09/29 00:14:25;;;;;;;4.82;1.10;;;;;;;;;;5061116;28;20039;-77
2022/09/29 00:16:51;;;;;;;4.18;0.80;;;;;;;;;;5060900;28;20210;-77
2022/09/29 00:19:18;;;;;;;5.95;0.70;;;;;;;;;;5061286;28;20032;-76
2022/09/29 00:21:46;;;;;;;5.88;1.20;;;;;;;;;;5061289;28;20097;-76
2022/09/29 00:24:11;;;;;;;5.60;1.13;;;;;;;;;;5064947;28;20028;-78
2022/09/29 00:26:37;;;;;;;4.35;0.80;;;;;;;;;;5065053;28;20040;-77
2022/09/29 00:29:03;;;;;;;3.78;0.80;;;;;;;;;;5064907;28;20067;-77
2022/09/29 00:31:31;;;;;;;2.75;0.73;;;;;;;;;;5064793;28;20029;-77
2022/09/29 00:33:57;;;;;;;1.88;0.60;;;;;;;;;;5064544;28;20025;-77
2022/09/29 00:36:24;;;;;;;6.65;0.98;;;;;;;;;;5064010;28;20041;-76
2022/09/29 00:38:53;;;;;;;5.55;0.80;;;;;;;;;;5064758;28;20321;-77
2022/09/29 00:41:25;;;;;;;4.35;0.88;;;;;;;;;;5064555;28;20166;-78
2022/09/29 00:44:01;;;;;;;3.70;0.80;;;;;;;;;;5064186;28;20075;-77
2022/09/29 00:46:32;;;;;;;4.78;0.85;;;;;;;;;;5064310;28;20082;-78
2022/09/29 00:49:07;;;;;;;3.00;0.75;;;;;;;;;;5064483;28;20056;-77
2022/09/29 00:51:34;;;;;;;4.15;0.82;;;;;;;;;;5046485;28;20108;-77
2022/09/29 00:54:01;;;;;;;6.38;0.90;;;;;;;;;;5064049;28;20029;-77
2022/09/29 00:56:27;;;;;;;3.88;0.88;;;;;;;;;;5064243;28;20092;-76
2022/09/29 00:59:00;;;;;;;2.47;0.70;;;;;;;;;;5064496;28;20025;-76
2022/09/29 01:01:29;;;;;;;3.95;0.70;;;;;;;;;;5064184;28;20033;-76
2022/09/29 01:04:00;;;;;;;5.20;1.00;;;;;;;;;;5063892;28;20029;-76
2022/09/29 01:06:35;;;;;;;4.63;0.73;;;;;;;;;;5064160;28;20316;-77
2022/09/29 01:09:07;;;;;;;5.13;0.85;;;;;;;;;;5064005;28;20070;-77
2022/09/29 01:11:33;;;;;;;2.30;0.60;;;;;;;;;;5063755;28;20071;-77
2022/09/29 01:14:03;;;;;;;3.05;0.70;;;;;;;;;;5063061;28;20029;-77
2022/09/29 01:16:31;;;;;;;1.98;0.68;;;;;;;;;;5064049;28;20044;-76
2022/09/29 01:18:58;;;;;;;3.65;0.63;;;;;;;;;;5063784;28;20033;-77
2022/09/29 01:21:35;;;;;;;2.65;0.70;;;;;;;;;;5063940;28;20220;-77
2022/09/29 01:24:41;;;;;;;2.72;0.63;;;;;;;;;;5063277;28;20056;-78
2022/09/29 01:27:37;;;;;;;3.58;0.63;;;;;;;;;;5063876;28;20056;-76
2022/09/29 01:30:08;;;;;;;3.45;0.60;;;;;;;;;;5063764;28;20336;-77
2022/09/29 01:32:55;;;;;;;2.40;0.60;;;;;;;;;;5062280;28;20154;-76
2022/09/29 01:35:26;;;;;;;4.25;0.65;;;;;;;;;;5045758;28;20031;-76
2022/09/29 01:38:10;;;;;;;;;;;;;;;;;;5064023;28;20025;-77
2022/09/29 01:40:56;;;;;;;2.28;0.50;;;;;;;;;;5063145;28;19920;-77
2022/09/29 01:43:38;;;;;;;2.83;0.70;;;;;;;;;;5062551;28;20044;-76
2022/09/29 01:46:27;;;;;;;2.20;0.47;;;;;;;;;;5063537;28;20090;-75
2022/09/29 01:48:55;;;;;;;1.55;0.60;;;;;;;;;;5063473;28;20056;-75
2022/09/29 01:51:29;;;;;;;3.80;0.68;;;;;;;;;;5063218;28;20099;-74
2022/09/29 01:53:58;;;;;;;2.65;0.70;;;;;;;;;;5062920;28;20095;-73
2022/09/29 01:56:39;;;;;;;2.08;0.65;;;;;;;;;;5062887;28;20024;-74
2022/09/29 01:59:31;;;;;;;2.47;0.50;;;;;;;;;;5062464;28;20083;-73
2022/09/29 02:02:01;;;;;;;2.60;0.70;;;;;;;;;;5050115;28;20040;-74
2022/09/29 02:04:58;;;;;;;2.00;0.60;;;;;;;;;;5062658;28;20029;-74
2022/09/29 02:07:40;;;;;;;2.22;0.52;;;;;;;;;;5042542;28;20032;-74
2022/09/29 02:10:35;;;;;;;2.72;0.60;;;;;;;;;;5062229;28;20037;-73
2022/09/29 02:13:04;;;;;;;2.65;0.73;;;;;;;;;;5062689;28;20029;-74
2022/09/29 02:15:35;;;;;;;2.45;0.60;;;;;;;;;;5062687;28;20041;-73
2022/09/29 02:18:07;;;;;;;1.48;0.50;;;;;;;;;;5062319;28;20063;-74
2022/09/29 02:20:33;;;;;;;3.30;0.50;;;;;;;;;;5062695;28;20324;-74
2022/09/29 02:22:58;;;;;;;2.75;0.40;;;;;;;;;;5062384;28;20087;-73
2022/09/29 02:25:24;;;;;;;2.25;0.60;;;;;;;;;;5062606;28;20039;-74
2022/09/29 02:27:50;;;;;;;2.72;0.50;;;;;;;;;;5062391;28;20096;-75
2022/09/29 02:30:16;;;;;;;4.43;0.70;;;;;;;;;;5062487;28;20143;-74
2022/09/29 02:32:42;;;;;;;2.00;0.50;;;;;;;;;;5062404;28;20217;-74
2022/09/29 02:35:10;;;;;;;2.72;0.40;;;;;;;;;;5061906;28;20304;-74
2022/09/29 02:37:48;;;;;;;2.38;0.50;;;;;;;;;;5062436;28;20033;-74
2022/09/29 02:41:12;;;;;;;0.80;0.40;;;;;;;;;;5062028;28;20052;-74
2022/09/29 02:43:52;;;;;;;1.08;0.40;;;;;;;;;;4980070;28;20058;-73
2022/09/29 02:46:46;;;;;;;1.08;0.50;;;;;;;;;;4980625;28;20067;-73
2022/09/29 02:49:21;;;;;;;2.13;0.50;;;;;;;;;;5002845;28;20044;-75
2022/09/29 02:51:55;;;;;;;2.22;0.57;;;;;;;;;;5061525;28;20334;-75
2022/09/29 02:54:40;;;;;;;2.40;0.50;;;;;;;;;;5043692;28;20100;-73
2022/09/29 02:57:47;;;;;;;2.58;0.50;;;;;;;;;;5061724;28;20029;-75
2022/09/29 03:00:14;;;;;;;1.92;0.50;;;;;;;;;;5061552;28;20330;-74
2022/09/29 03:02:41;;;;;;;2.83;0.40;;;;;;;;;;5061875;28;20025;-79
2022/09/29 03:05:16;;;;;;;1.83;0.40;;;;;;;;;;5061604;28;20025;-79
2022/09/29 03:07:42;;;;;;;1.48;0.40;;;;;;;;;;5061723;28;20040;-79
2022/09/29 03:10:08;;;;;;;1.73;0.50;;;;;;;;;;5061302;28;20354;-79
2022/09/29 03:12:34;;;;;;;2.00;0.50;;;;;;;;;;5043007;28;20087;-76
2022/09/29 03:15:00;;;;;;;2.33;0.45;;;;;;;;;;5060948;28;20228;-78
2022/09/29 03:17:25;;;;;;;2.38;0.50;;;;;;;;;;5061681;28;20032;-76
2022/09/29 03:19:50;;;;;;;2.17;0.40;;;;;;;;;;5061684;28;20048;-78
2022/09/29 03:22:17;;;;;;;1.42;0.35;;;;;;;;;;5061170;28;20043;-76
2022/09/29 03:24:43;;;;;;;2.45;0.47;;;;;;;;;;5061305;28;20033;-75
2022/09/29 03:27:09;;;;;;;1.88;0.47;;;;;;;;;;5061575;28;20025;-78
2022/09/29 03:29:35;;;;;;;1.25;0.40;;;;;;;;;;5061204;28;20040;-78
2022/09/29 03:32:01;;;;;;;2.20;0.40;;;;;;;;;;5043760;28;20287;-75
2022/09/29 03:34:27;;;;;;;1.90;0.55;;;;;;;;;;5061424;28;20442;-76
2022/09/29 03:36:52;;;;;;;2.60;0.40;;;;;;;;;;5060961;28;20224;-77
2022/09/29 03:39:17;;;;;;;1.42;0.32;;;;;;;;;;5060602;28;20099;-77
2022/09/29 03:41:43;;;;;;;1.35;0.30;;;;;;;;;;5060478;28;20033;-76
2022/09/29 03:44:08;;;;;;;1.33;0.30;;;;;;;;;;5060995;28;20048;-78
2022/09/29 03:46:33;;;;;;;1.92;0.25;;;;;;;;;;5060513;28;20044;-77
2022/09/29 03:48:59;;;;;;;0.88;0.20;;;;;;;;;;5060582;28;20036;-78
2022/09/29 03:51:24;;;;;;;1.27;0.20;;;;;;;;;;5061061;28;20283;-77
2022/09/29 03:53:50;;;;;;;1.13;0.22;;;;;;;;;;5060406;28;20092;-76
2022/09/29 03:56:15;;;;;;;1.27;0.20;;;;;;;;;;5062199;28;20025;-77
2022/09/29 03:58:40;;;;;;;0.52;0.20;;;;;;;;;;5065616;28;20048;-77
2022/09/29 04:01:06;;;;;;;0.85;0.20;;;;;;;;;;5064917;28;20032;-77
2022/09/29 04:03:31;;;;;;;1.85;0.40;;;;;;;;;;5065231;28;20028;-77
2022/09/29 04:05:57;;;;;;;1.30;0.30;;;;;;;;;;5064852;28;20035;-76
2022/09/29 04:08:22;;;;;;;1.27;0.20;;;;;;;;;;5064537;28;20381;-78
2022/09/29 04:10:48;;;;;;;2.60;0.40;;;;;;;;;;5064921;28;20063;-76
2022/09/29 04:13:14;;;;;;;0.90;0.25;;;;;;;;;;5064641;28;20250;-76
2022/09/29 04:15:39;;;;;;;1.77;0.40;;;;;;;;;;5065004;28;20035;-77
2022/09/29 04:18:05;;;;;;;1.80;0.40;;;;;;;;;;5047273;28;20066;-77
2022/09/29 04:20:31;;;;;;;2.83;0.43;;;;;;;;;;5064132;28;20232;-76
2022/09/29 04:22:57;;;;;;;0.88;0.30;;;;;;;;;;5064819;28;20029;-76
2022/09/29 04:25:23;;;;;;;0.82;0.25;;;;;;;;;;5064731;28;20040;-75
2022/09/29 04:27:48;;;;;;;3.10;0.40;;;;;;;;;;5064979;28;20028;-75
2022/09/29 04:30:14;;;;;;;0.95;0.25;;;;;;;;;;5064942;28;20336;-74
2022/09/29 04:32:39;;;;;;;2.10;0.43;;;;;;;;;;5064890;28;20096;-77
2022/09/29 04:35:05;;;;;;;1.27;0.40;;;;;;;;;;5064447;28;20085;-76
2022/09/29 04:37:30;;;;;;;1.42;0.40;;;;;;;;;;5064349;28;20313;-74
2022/09/29 04:39:56;;;;;;;3.13;0.30;;;;;;;;;;5046448;28;20111;-75
2022/09/29 04:42:22;;;;;;;2.22;0.35;;;;;;;;;;5046805;28;20124;-75
2022/09/29 04:44:47;;;;;;;0.40;0.25;;;;;;;;;;5064202;28;20036;-74
2022/09/29 04:47:12;;;;;;;0.55;0.20;;;;;;;;;;5064387;28;20036;-75
2022/09/29 04:49:38;;;;;;;1.25;0.30;;;;;;;;;;5060892;28;20025;-75
2022/09/29 04:52:04;;;;;;;2.85;0.40;;;;;;;;;;5044813;28;20025;-75
2022/09/29 04:54:31;;;;;;;1.40;0.35;;;;;;;;;;5026138;28;20344;-74
2022/09/29 04:56:57;;;;;;;1.75;0.35;;;;;;;;;;5043727;28;20096;-76
2022/09/29 04:59:23;;;;;;;1.08;0.30;;;;;;;;;;5044132;28;20028;-75
2022/09/29 05:01:48;;;;;;;0.85;0.22;;;;;;;;;;5043651;28;20229;-74
2022/09/29 05:04:14;;;;;;;2.38;0.47;;;;;;;;;;5043937;28;20025;-74
2022/09/29 05:06:39;;;;;;;1.80;0.43;;;;;;;;;;5043927;28;20037;-74
2022/09/29 05:09:05;;;;;;;0.88;0.20;;;;;;;;;;5043216;28;20037;-74
2022/09/29 05:11:30;;;;;;;1.58;0.40;;;;;;;;;;5043636;28;20093;-74
2022/09/29 05:13:56;;;;;;;0.50;0.20;;;;;;;;;;5043580;28;20052;-75
2022/09/29 05:16:22;;;;;;;0.80;0.28;;;;;;;;;;5043407;28;20078;-74
2022/09/29 05:18:48;;;;;;;0.57;0.30;;;;;;;;;;5043845;28;20021;-75
2022/09/29 05:21:13;;;;;;;1.00;0.30;;;;;;;;;;5043829;28;20037;-74
2022/09/29 05:23:41;;;;;;;0.80;0.40;;;;;;;;;;5025649;28;20053;-75
2022/09/29 05:26:07;;;;;;;0.30;0.20;;;;;;;;;;5043082;28;20405;-76
2022/09/29 05:28:33;;;;;;;1.25;0.38;;;;;;;;;;5043615;28;20033;-74
2022/09/29 05:31:06;;;;;;;0.85;0.20;;;;;;;;;;5043302;28;20033;-75
2022/09/29 05:33:32;;;;;;;0.80;0.22;;;;;;;;;;5044156;28;20014;-74
2022/09/29 05:35:57;;;;;;;0.60;0.30;;;;;;;;;;5043542;28;20079;-74
2022/09/29 05:38:24;;;;;;;0.98;0.20;;;;;;;;;;5043793;28;20029;-74
2022/09/29 05:40:50;;;;;;;0.63;0.40;;;;;;;;;;5025625;28;20399;-74
2022/09/29 05:43:16;;;;;;;2.38;0.68;;;;;;;;;;5043595;28;20029;-73
2022/09/29 05:45:41;;;;;;;0.93;0.32;;;;;;;;;;5025485;28;20221;-73
2022/09/29 05:48:07;;;;;;;1.98;0.40;;;;;;;;;;5043259;28;20030;-73
2022/09/29 05:50:40;;;;;;;1.35;0.40;;;;;;;;;;5043241;28;20105;-74
2022/09/29 05:53:06;;;;;;;0.95;0.40;;;;;;;;;;5042462;28;20396;-73
2022/09/29 05:55:31;;;;;;;1.27;0.52;;;;;;;;;;5042858;28;20144;-74
2022/09/29 05:57:56;;;;;;;2.45;0.50;;;;;;;;;;5041999;28;20031;-76
2022/09/29 06:00:22;;;;;;;0.93;0.40;;;;;;;;;;5043165;28;20075;-78
2022/09/29 06:02:47;;;;;;;0.55;0.30;;;;;;;;;;5042933;28;20025;-78
2022/09/29 06:05:13;;;;;;;2.45;0.60;;;;;;;;;;5043052;28;20069;-77
2022/09/29 06:07:38;;;;;;;1.23;0.40;;;;;;;;;;5042475;28;20037;-77
2022/09/29 06:10:04;;;;;;;1.70;0.50;;;;;;;;;;5042917;28;20032;-78
2022/09/29 06:12:34;;;;;;;0.73;0.40;;;;;;;;;;5042960;28;20017;-75
2022/09/29 06:15:00;;;;;;;1.33;0.40;;;;;;;;;;5042964;28;20025;-78
2022/09/29 06:17:25;;;;;;;1.27;0.40;;;;;;;;;;5042403;28;20118;-74
2022/09/29 06:19:51;;;;;;;3.28;0.40;;;;;;;;;;5040843;28;20029;-74
2022/09/29 06:22:18;;;;;;;2.25;0.68;;;;;;;;;;5042643;28;20351;-76
2022/09/29 06:24:43;;;;;;;1.83;0.60;;;;;;;;;;5042661;28;20072;-75
2022/09/29 06:27:09;;;;;;;2.55;0.43;;;;;;;;;;5042649;28;20199;-76
2022/09/29 06:29:35;;;;;;;2.20;0.75;;;;;;;;;;5042809;28;20026;-75
2022/09/29 06:32:01;;;;;;;3.45;0.68;;;;;;;;;;5042472;28;20068;-78
2022/09/29 06:34:26;;;;;;;2.47;0.40;;;;;;;;;;5042714;28;20224;-79
2022/09/29 06:39:36;;;;;;;2.35;0.40;;;;;;;;;;5042379;28;20043;-74
2022/09/29 06:42:02;;;;;;;1.63;0.38;;;;;;;;;;5041757;28;20045;-73
2022/09/29 06:44:29;;;;;;;3.42;0.90;;;;;;;;;;5042440;28;20021;-73
2022/09/29 06:46:55;;;;;;;1.33;0.70;;;;;;;;;;5042012;28;20025;-73
2022/09/29 06:49:22;;;;;;;3.65;0.40;;;;;;;;;;5041983;28;20029;-74
2022/09/29 06:51:48;;;;;;;1.92;0.60;;;;;;;;;;5042173;28;20033;-73
2022/09/29 06:54:15;;;;;;;0.68;0.20;;;;;;;;;;5041613;28;20034;-75
2022/09/29 06:56:41;;;;;;;0.85;0.50;;;;;;;;;;5041204;28;20032;-75
2022/09/29 06:59:07;;;;;;;1.25;0.50;;;;;;;;;;5024535;28;20025;-77
2022/09/29 07:01:33;;;;;;;3.17;0.65;;;;;;;;;;5041470;28;20067;-75
2022/09/29 07:03:59;;;;;;;1.58;0.60;;;;;;;;;;5042086;28;20213;-77
2022/09/29 07:06:25;;;;;;;3.13;0.60;;;;;;;;;;5050384;28;20021;-76
2022/09/29 07:08:55;;;;;;;1.55;0.70;;;;;;;;;;5061618;28;20221;-77
2022/09/29 07:11:20;;;;;;;3.90;0.68;;;;;;;;;;5061428;28;20017;-77
2022/09/29 07:13:46;;;;;;;2.50;0.60;;;;;;;;;;5061460;28;20029;-73
2022/09/29 07:16:12;;;;;;;2.08;0.50;;;;;;;;;;5061194;28;20017;-73
2022/09/29 07:18:40;;;;;;;1.98;0.50;;;;;;;;;;5056675;28;20037;-73
2022/09/29 07:21:08;;;;;;;1.15;0.40;;;;;;;;;;5059288;28;20029;-74
2022/09/29 07:23:35;;;;;;;1.80;0.40;;;;;;;;;;5059710;28;20324;-74
2022/09/29 07:26:00;;;;;;;4.30;0.60;;;;;;;;;;5059106;28;20033;-73
2022/09/29 07:28:27;;;;;;;1.23;0.60;;;;;;;;;;5042145;28;20092;-74
2022/09/29 07:31:07;;;;;;;3.35;0.57;;;;;;;;;;5038663;28;20091;-73
2022/09/29 07:33:33;;;;;;;3.40;0.40;;;;;;;;;;5038530;28;20333;-74
2022/09/29 07:35:59;;;;;;;1.60;0.45;;;;;;;;;;5027629;28;20037;-76
2022/09/29 07:38:25;;;;;;;0.70;0.30;;;;;;;;;;5046004;28;20037;-74
2022/09/29 07:40:51;;;;;;;1.00;0.28;;;;;;;;;;5056839;28;20124;-74
2022/09/29 07:43:18;;;;;;;1.73;0.38;;;;;;;;;;5039412;28;20101;-75
2022/09/29 07:45:48;;;;;;;2.25;0.35;;;;;;;;;;5032629;28;20037;-75
2022/09/29 07:48:14;;;;;;;1.33;0.40;;;;;;;;;;5029573;28;20026;-73
2022/09/29 07:50:40;;;;;;;0.70;0.32;;;;;;;;;;5029815;28;20583;-75
2022/09/29 07:53:05;;;;;;;2.65;0.40;;;;;;;;;;5033702;28;20548;-74
2022/09/29 07:55:31;;;;;;;2.28;0.25;;;;;;;;;;5044889;28;20485;-74
2022/09/29 07:57:56;;;;;;;2.45;0.40;;;;;;;;;;5028949;28;20033;-74
2022/09/29 08:00:22;;;;;;;2.33;0.32;;;;;;;;;;5044683;28;20029;-75
2022/09/29 08:02:48;;;;;;;2.55;0.82;;;;;;;;;;5052481;28;20029;-74
2022/09/29 08:05:14;;;;;;;1.05;0.50;;;;;;;;;;5039556;28;20342;-75
2022/09/29 08:07:39;;;;;;;2.15;0.50;;;;;;;;;;5028935;28;20465;-74
2022/09/29 08:10:05;;;;;;;1.75;0.50;;;;;;;;;;5025848;28;20469;-73
2022/09/29 08:12:31;;;;;;;0.77;0.25;;;;;;;;;;5047541;28;20029;-73
2022/09/29 08:14:56;;;;;;;1.05;0.45;;;;;;;;;;5050881;28;20021;-75
2022/09/29 08:17:22;;;;;;;1.65;0.30;;;;;;;;;;5047951;28;20403;-75
2022/09/29 08:19:47;;;;;;;1.40;0.50;;;;;;;;;;5046609;28;20076;-75
2022/09/29 08:22:12;;;;;;;2.00;0.50;;;;;;;;;;5046321;28;20064;-74
2022/09/29 08:24:39;;;;;;;3.00;0.93;;;;;;;;;;5046096;28;20051;-74
2022/09/29 08:27:05;;;;;;;1.83;0.50;;;;;;;;;;5045720;28;20029;-76
2022/09/29 08:29:31;;;;;;;2.30;0.50;;;;;;;;;;5046717;28;20104;-75
2022/09/29 08:31:57;;;;;;;1.00;0.47;;;;;;;;;;5046895;28;20024;-75
2022/09/29 08:34:22;;;;;;;1.65;0.50;;;;;;;;;;5048102;28;20025;-74
2022/09/29 08:36:48;;;;;;;1.60;0.52;;;;;;;;;;5049405;28;20025;-75
2022/09/29 08:39:14;;;;;;;1.30;0.50;;;;;;;;;;5049047;28;20435;-74
2022/09/29 08:41:56;;;;;;;0.63;0.40;;;;;;;;;;5049322;28;20044;-74
2022/09/29 08:44:43;;;;;;;1.77;0.50;;;;;;;;;;5034229;28;20045;-75
2022/09/29 08:47:36;;;;;;;1.63;0.50;;;;;;;;;;5052782;28;20029;-75
2022/09/29 08:50:36;;;;;;;2.10;0.40;;;;;;;;;;5042713;28;20041;-74
2022/09/29 08:53:09;;;;;;;4.20;0.50;;;;;;;;;;5052841;28;20082;-76
2022/09/29 08:55:45;;;;;;;2.45;0.50;;;;;;;;;;5053232;28;20032;-74
2022/09/29 08:58:13;;;;;;;3.20;0.55;;;;;;;;;;5052672;28;20040;-74
2022/09/29 09:01:15;;;;;;;4.13;0.50;;;;;;;;;;5052704;28;20120;-75
2022/09/29 09:04:18;;;;;;;2.17;0.60;;;;;;;;;;5034578;28;20032;-74
2022/09/29 09:07:09;;;;;;;2.53;0.40;;;;;;;;;;5052651;28;20626;-75
2022/09/29 09:09:58;;;;;;;1.70;0.40;;;;;;;;;;5052519;28;20029;-74
2022/09/29 09:12:47;;;;;;;2.00;0.50;;;;;;;;;;5052788;28;20039;-75
2022/09/29 09:15:44;;;;;;;2.22;0.80;;;;;;;;;;5052998;28;20453;-76
2022/09/29 09:18:19;;;;;;;1.38;0.40;;;;;;;;;;5052026;28;20059;-78
2022/09/29 09:21:08;;;;;;;1.83;0.60;;;;;;;;;;5052212;28;20083;-76
2022/09/29 09:23:39;;;;;;;1.77;0.50;;;;;;;;;;5034461;28;20507;-77
2022/09/29 09:26:05;;;;;;;1.67;0.40;;;;;;;;;;5052399;28;20025;-77
2022/09/29 09:28:30;;;;;;;1.58;0.50;;;;;;;;;;5052450;28;20632;-74
2022/09/29 09:31:16;;;;;;;1.70;0.60;;;;;;;;;;5052398;28;20025;-75
2022/09/29 09:33:46;;;;;;;0.75;0.40;;;;;;;;;;5051652;28;20029;-78
2022/09/29 09:36:15;;;;;;;0.55;0.30;;;;;;;;;;5051886;28;20070;-75
2022/09/29 09:38:52;;;;;;;2.88;0.63;;;;;;;;;;5034150;28;20025;-77
2022/09/29 09:41:21;;;;;;;2.30;0.45;;;;;;;;;;5051752;28;20532;-74
2022/09/29 09:43:50;;;;;;;1.95;0.65;;;;;;;;;;5051923;28;20701;-76
2022/09/29 09:46:48;;;;;;;1.25;0.47;;;;;;;;;;5052263;28;20346;-76
2022/09/29 09:49:30;;;;;;;1.85;0.50;;;;;;;;;;5051669;28;20025;-75
2022/09/29 09:52:02;;;;;;;1.73;0.40;;;;;;;;;;5051783;28;20036;-76
2022/09/29 09:54:45;;;;;;;1.48;0.47;;;;;;;;;;5051450;28;20024;-75
2022/09/29 09:57:17;;;;;;;3.13;0.57;;;;;;;;;;5051574;28;20067;-75
2022/09/29 09:59:49;;;;;;;1.27;0.40;;;;;;;;;;5051609;28;20033;-77
2022/09/29 10:02:20;;;;;;;1.55;0.40;;;;;;;;;;5051618;28;20029;-75
2022/09/29 10:04:55;;;;;;;1.50;0.38;;;;;;;;;;5051448;28;20033;-76
2022/09/29 10:07:24;;;;;;;2.55;0.60;;;;;;;;;;5051174;28;20067;-75
2022/09/29 10:09:51;;;;;;;1.75;0.40;;;;;;;;;;5050966;28;20035;-75
2022/09/29 10:12:19;;;;;;;2.10;0.60;;;;;;;;;;5033283;28;20036;-76
2022/09/29 10:15:11;;;;;;;2.20;0.47;;;;;;;;;;5051196;28;20024;-75
2022/09/29 10:17:41;;;;;;;2.20;0.40;;;;;;;;;;5033308;28;20036;-75
2022/09/29 10:20:08;;;;;;;2.38;0.50;;;;;;;;;;5051189;28;20091;-75
2022/09/29 10:22:34;;;;;;;1.13;0.50;;;;;;;;;;5051420;28;20044;-77
2022/09/29 10:25:07;;;;;;;1.60;0.40;;;;;;;;;;5050979;28;20028;-75
2022/09/29 10:27:34;;;;;;;0.95;0.40;;;;;;;;;;5050980;28;20021;-76
2022/09/29 10:30:01;;;;;;;1.63;0.40;;;;;;;;;;5051272;28;20446;-74
2022/09/29 10:32:35;;;;;;;1.50;0.40;;;;;;;;;;5051074;28;20029;-74
2022/09/29 10:35:23;;;;;;;1.75;0.50;;;;;;;;;;5051056;28;20484;-74
2022/09/29 10:38:04;;;;;;;1.83;0.68;;;;;;;;;;5051351;28;20481;-74
2022/09/29 10:40:30;;;;;;;1.77;0.43;;;;;;;;;;5050537;28;20488;-74
2022/09/29 10:42:56;;;;;;;0.95;0.30;;;;;;;;;;5050869;28;20033;-74
2022/09/29 10:45:26;;;;;;;2.25;0.50;;;;;;;;;;5050522;28;20393;-74
2022/09/29 10:47:58;;;;;;;1.23;0.50;;;;;;;;;;5050766;28;20084;-74
2022/09/29 10:50:26;;;;;;;1.05;0.40;;;;;;;;;;5050664;28;20028;-74
2022/09/29 10:52:53;;;;;;;1.52;0.50;;;;;;;;;;5050916;28;20029;-74
2022/09/29 10:55:46;;;;;;;0.47;0.30;;;;;;;;;;5050640;28;20025;-77
2022/09/29 10:58:28;;;;;;;1.58;0.52;;;;;;;;;;5050731;28;20050;-75
2022/09/29 11:01:12;;;;;;;2.10;0.50;;;;;;;;;;5050383;28;20033;-75
2022/09/29 11:04:00;;;;;;;0.70;0.50;;;;;;;;;;5050423;28;20108;-76
2022/09/29 11:06:35;;;;;;;2.50;0.52;;;;;;;;;;5049946;28;20029;-75
2022/09/29 11:09:17;;;;;;;0.85;0.50;;;;;;;;;;5050390;28;20392;-74
2022/09/29 11:11:45;;;;;;;3.38;0.50;;;;;;;;;;5050801;28;20029;-73
2022/09/29 11:14:37;;;;;;;1.20;0.57;;;;;;;;;;5050338;28;20380;-73
2022/09/29 11:17:24;;;;;;;1.00;0.30;;;;;;;;;;5036485;28;20033;-72
2022/09/29 11:19:52;;;;;;;2.35;0.30;;;;;;;;;;5031988;28;20021;-73
2022/09/29 11:22:51;;;;;;;1.05;0.40;;;;;;;;;;5050031;28;20021;-73
2022/09/29 11:25:31;;;;;;;0.40;0.20;;;;;;;;;;5049981;28;20021;-75
2022/09/29 11:28:32;;;;;;;1.85;0.30;;;;;;;;;;5050287;28;20021;-73
2022/09/29 11:31:19;;;;;;;2.97;0.30;;;;;;;;;;5050064;28;20160;-73
2022/09/29 11:33:48;;;;;;;1.25;0.30;;;;;;;;;;5032124;28;20112;-73
2022/09/29 11:36:22;;;;;;;0.82;0.30;;;;;;;;;;5049931;28;20025;-75
2022/09/29 11:39:24;;;;;;;1.35;0.43;;;;;;;;;;5049678;28;20028;-77
2022/09/29 11:42:16;;;;;;;0.77;0.30;;;;;;;;;;5049861;28;20037;-76
2022/09/29 11:45:02;;;;;;;1.30;0.50;;;;;;;;;;5049837;28;20033;-75
2022/09/29 11:47:31;;;;;;;1.77;0.30;;;;;;;;;;5049544;28;20029;-76
2022/09/29 11:50:20;;;;;;;1.73;0.50;;;;;;;;;;5049624;28;20032;-76
2022/09/29 11:53:04;;;;;;;2.67;0.60;;;;;;;;;;5050010;28;20021;-75
2022/09/29 11:55:41;;;;;;;1.77;0.50;;;;;;;;;;5049400;28;20017;-76
2022/09/29 11:58:20;;;;;;;1.05;0.30;;;;;;;;;;5049586;28;20036;-77
2022/09/29 12:01:06;;;;;;;4.43;0.50;;;;;;;;;;5049781;28;20025;-76
2022/09/29 12:03:36;;;;;;;1.27;0.40;;;;;;;;;;5049829;28;20029;-75
2022/09/29 12:06:30;;;;;;;1.58;0.32;;;;;;;;;;5049654;28;20492;-76
2022/09/29 12:09:25;;;;;;;1.08;0.40;;;;;;;;;;5049604;28;20548;-75
2022/09/29 12:12:08;;;;;;;1.15;0.50;;;;;;;;;;5049642;28;20068;-77
2022/09/29 12:15:10;;;;;;;2.03;0.50;;;;;;;;;;5049517;28;20112;-76
2022/09/29 12:17:42;;;;;;;0.82;0.40;;;;;;;;;;5051364;28;20126;-76
2022/09/29 12:20:30;;;;;;;2.65;0.35;;;;;;;;;;5053334;28;20025;-74
2022/09/29 12:23:00;;;;;;;1.75;0.40;;;;;;;;;;5053733;28;20040;-73
2022/09/29 12:25:28;;;;;;;1.83;0.30;;;;;;;;;;5053258;28;20405;-73
2022/09/29 12:27:59;;;;;;;0.52;0.35;;;;;;;;;;5053267;28;20029;-74
2022/09/29 12:30:28;;;;;;;0.88;0.43;;;;;;;;;;5053134;28;20078;-73
2022/09/29 12:33:19;;;;;;;1.17;0.40;;;;;;;;;;5053224;28;20050;-74
2022/09/29 12:36:02;;;;;;;0.60;0.35;;;;;;;;;;5053355;28;20029;-75
2022/09/29 12:38:37;;;;;;;0.95;0.30;;;;;;;;;;5053177;28;20481;-76
2022/09/29 12:41:20;;;;;;;1.00;0.40;;;;;;;;;;5052937;28;20045;-77
2022/09/29 12:43:55;;;;;;;1.00;0.30;;;;;;;;;;5035044;28;20025;-75
2022/09/29 12:46:27;;;;;;;1.45;0.30;;;;;;;;;;5052924;28;20523;-73
2022/09/29 12:49:00;;;;;;;1.67;0.40;;;;;;;;;;5052701;28;20056;-75
2022/09/29 12:51:34;;;;;;;2.17;0.30;;;;;;;;;;5052755;28;20408;-74
2022/09/29 12:54:13;;;;;;;1.00;0.30;;;;;;;;;;5053103;28;20021;-75
2022/09/29 12:56:46;;;;;;;0.35;0.20;;;;;;;;;;5052908;28;20021;-75
2022/09/29 12:59:26;;;;;;;1.23;0.40;;;;;;;;;;5052772;28;20100;-75
2022/09/29 13:01:55;;;;;;;0.80;0.30;;;;;;;;;;5052646;28;20040;-76
2022/09/29 13:04:41;;;;;;;0.65;0.30;;;;;;;;;;5053248;28;20037;-74
2022/09/29 13:07:15;;;;;;;1.15;0.40;;;;;;;;;;5052463;28;20028;-75
2022/09/29 13:10:09;;;;;;;1.75;0.38;;;;;;;;;;5034810;28;20037;-75
2022/09/29 13:12:51;;;;;;;1.38;0.32;;;;;;;;;;5052565;28;20029;-75
2022/09/29 13:15:29;;;;;;;1.20;0.55;;;;;;;;;;5034883;28;20033;-76
2022/09/29 13:17:56;;;;;;;0.50;0.30;;;;;;;;;;5052266;28;20025;-75
2022/09/29 13:20:47;;;;;;;2.15;0.30;;;;;;;;;;5052293;28;20033;-75
2022/09/29 13:23:16;;;;;;;1.00;0.32;;;;;;;;;;5034001;28;20063;-75
2022/09/29 13:25:53;;;;;;;0.80;0.30;;;;;;;;;;5052297;28;20025;-74
2022/09/29 13:28:22;;;;;;;2.55;0.60;;;;;;;;;;5051629;28;20060;-74
2022/09/29 13:30:48;;;;;;;1.00;0.30;;;;;;;;;;5052228;28;20590;-76
2022/09/29 13:33:25;;;;;;;1.85;0.22;;;;;;;;;;5052108;28;20021;-76
2022/09/29 13:35:52;;;;;;;1.65;0.60;;;;;;;;;;5052056;28;20512;-75
2022/09/29 13:38:28;;;;;;;1.15;0.30;;;;;;;;;;5052021;28;20033;-76
2022/09/29 13:41:12;;;;;;;1.23;0.25;;;;;;;;;;5051597;28;20053;-75
2022/09/29 13:43:50;;;;;;;2.42;0.47;;;;;;;;;;5051984;28;20031;-74
2022/09/29 13:46:32;;;;;;;2.20;0.38;;;;;;;;;;5051852;28;20036;-74
2022/09/29 13:49:13;;;;;;;0.65;0.40;;;;;;;;;;5051954;28;20047;-74
2022/09/29 13:51:56;;;;;;;1.20;0.57;;;;;;;;;;5051643;28;20025;-75
2022/09/29 13:54:43;;;;;;;1.02;0.50;;;;;;;;;;5051762;28;20557;-76
2022/09/29 13:57:14;;;;;;;1.55;0.30;;;;;;;;;;5051413;28;20112;-74
2022/09/29 14:00:01;;;;;;;1.08;0.30;;;;;;;;;;5051579;28;20025;-74
2022/09/29 14:02:30;;;;;;;0.95;0.30;;;;;;;;;;5051498;28;20052;-76
2022/09/29 14:04:59;;;;;;;2.28;0.40;;;;;;;;;;5052006;28;20095;-75
2022/09/29 14:07:40;;;;;;;1.00;0.40;;;;;;;;;;5051574;28;20408;-74
2022/09/29 14:10:35;;;;;;;1.20;0.43;;;;;;;;;;5051719;28;20025;-75
2022/09/29 14:13:06;;;;;;;2.50;0.60;;;;;;;;;;5040021;28;20052;-75
2022/09/29 14:15:35;;;;;;;2.22;0.30;;;;;;;;;;5051453;28;20078;-76
2022/09/29 14:18:07;;;;;;;0.73;0.30;;;;;;;;;;5050882;28;20116;-74
2022/09/29 14:20:33;;;;;;;1.75;0.30;;;;;;;;;;5033401;28;20029;-73
2022/09/29 14:23:04;;;;;;;2.55;0.40;;;;;;;;;;5051235;28;20056;-74
2022/09/29 14:25:31;;;;;;;;;;;;;;;;;;5051643;28;20028;-75
2022/09/29 14:27:57;;;;;;;1.05;0.20;;;;;;;;;;5050848;28;20400;-72
2022/09/29 14:30:34;;;;;;;0.32;0.20;;;;;;;;;;5051396;28;20029;-73
2022/09/29 14:33:08;;;;;;;1.20;0.40;;;;;;;;;;5050716;28;20055;-77
2022/09/29 14:35:36;;;;;;;1.23;0.60;;;;;;;;;;5033130;28;20021;-76
2022/09/29 14:38:12;;;;;;;0.98;0.30;;;;;;;;;;5050690;28;20033;-75
2022/09/29 14:40:38;;;;;;;0.93;0.30;;;;;;;;;;5050079;28;20045;-77
2022/09/29 14:43:16;;;;;;;2.90;0.47;;;;;;;;;;5050686;28;20120;-75
2022/09/29 14:52:02;;;;;;;0.63;0.30;;;;;;;;;;5050776;28;20079;-75
2022/09/29 14:54:42;;;;;;;1.27;0.40;;;;;;;;;;5032754;28;20025;-73
2022/09/29 14:57:21;;;;;;;1.63;0.50;;;;;;;;;;5050574;28;20024;-76
2022/09/29 14:59:49;;;;;;;2.08;0.60;;;;;;;;;;5050365;28;20116;-75
2022/09/29 15:02:17;;;;;;;2.22;0.45;;;;;;;;;;5050301;28;20025;-77
2022/09/29 15:04:44;;;;;;;1.67;0.40;;;;;;;;;;5050491;28;20036;-76
2022/09/29 15:07:15;;;;;;;2.95;0.50;;;;;;;;;;5050213;28;20028;-77
2022/09/29 15:09:46;;;;;;;1.55;0.63;;;;;;;;;;5050552;28;20376;-74
2022/09/29 15:12:19;;;;;;;1.63;0.40;;;;;;;;;;5050185;28;20033;-74
2022/09/29 15:14:45;;;;;;;4.72;0.47;;;;;;;;;;5050751;28;20090;-75
2022/09/29 15:17:29;;;;;;;1.10;0.40;;;;;;;;;;5050125;28;20362;-75
2022/09/29 15:20:25;;;;;;;0.77;0.20;;;;;;;;;;5050085;28;20051;-75
2022/09/29 15:22:53;;;;;;;3.60;0.50;;;;;;;;;;5049820;28;20120;-76
2022/09/29 15:25:45;;;;;;;0.68;0.43;;;;;;;;;;5050114;28;20098;-76